Time;durP1;ratioP1;P1;durP2;ratioP2;P2;SDS_P1;SDS_P2;PMS_P1;PMS_P2;Temp;Humidity;BMP_temperature;BMP_pressure;BME280_temperature;BME280_humidity;BME280_pressure;Samples;Min_cycle;Max_cycle;Signal;HPM_P1;HPM_P2
2023/12/22 00:00:48;;;;;;;4.45;2.22;;;4.70;99.90;;;;;;5033974;28;20512;-78
2023/12/22 00:03:15;;;;;;;3.78;1.98;;;3.80;99.90;;;;;;5033935;28;20451;-78
2023/12/22 00:05:41;;;;;;;5.97;2.35;;;3.90;99.90;;;;;;5017347;28;20045;-78
2023/12/22 00:08:06;;;;;;;6.07;2.75;;;4.00;99.90;;;;;;5017472;28;20401;-78
2023/12/22 00:10:32;;;;;;;6.85;2.30;;;4.00;99.90;;;;;;5017140;28;20119;-81
2023/12/22 00:12:58;;;;;;;5.22;2.25;;;4.30;99.90;;;;;;5033629;28;20095;-82
2023/12/22 00:15:23;;;;;;;4.40;2.15;;;5.30;99.90;;;;;;5018431;28;20400;-83
2023/12/22 00:17:49;;;;;;;5.68;2.35;;;4.30;99.90;;;;;;5018172;28;20490;-83
2023/12/22 00:20:15;;;;;;;4.20;2.00;;;4.50;99.90;;;;;;5018279;28;20052;-85
2023/12/22 00:22:40;;;;;;;5.20;1.85;;;4.90;99.90;;;;;;5017345;28;20037;-84
2023/12/22 00:25:07;;;;;;;3.78;1.80;;;4.70;99.90;;;;;;5018161;28;20060;-85
2023/12/22 00:27:33;;;;;;;3.75;2.15;;;4.80;99.90;;;;;;5018038;28;20444;-86
2023/12/22 00:29:59;;;;;;;5.30;2.58;;;4.80;99.90;;;;;;5034461;28;20108;-84
2023/12/22 00:32:25;;;;;;;3.65;1.63;;;5.00;99.90;;;;;;5033413;28;20033;-83
2023/12/22 00:34:50;;;;;;;3.63;2.03;;;5.00;99.90;;;;;;5016342;28;20044;-82
2023/12/22 00:37:16;;;;;;;6.30;1.95;;;5.10;99.90;;;;;;5032811;28;20558;-82
2023/12/22 00:39:42;;;;;;;2.78;1.50;;;5.10;99.90;;;;;;5016195;28;20041;-83
2023/12/22 00:42:08;;;;;;;2.20;1.23;;;5.20;99.90;;;;;;5032913;28;20048;-84
2023/12/22 00:44:34;;;;;;;2.13;1.30;;;5.00;99.90;;;;;;5032751;28;20164;-85
2023/12/22 00:46:59;;;;;;;4.47;1.92;;;4.90;99.90;;;;;;5016253;28;20049;-84
2023/12/22 00:49:25;;;;;;;3.78;1.50;;;4.80;99.90;;;;;;5016378;28;20052;-84
2023/12/22 00:51:50;;;;;;;4.07;2.08;;;4.80;99.90;;;;;;5016484;28;20047;-80
2023/12/22 00:54:16;;;;;;;2.75;1.40;;;4.80;99.90;;;;;;5015909;28;20036;-79
2023/12/22 00:56:42;;;;;;;6.00;2.10;;;4.70;99.90;;;;;;5016028;28;20488;-79
2023/12/22 00:59:07;;;;;;;2.90;1.92;;;4.80;99.90;;;;;;5032737;28;20405;-79
2023/12/22 01:01:33;;;;;;;3.03;1.63;;;5.90;99.90;;;;;;5016018;28;20512;-79
2023/12/22 01:03:59;;;;;;;2.08;1.55;;;4.80;99.90;;;;;;5032262;28;20052;-79
2023/12/22 01:06:24;;;;;;;2.83;1.48;;;4.90;99.90;;;;;;5015685;28;20102;-78
2023/12/22 01:08:50;;;;;;;3.80;1.65;;;4.80;99.90;;;;;;5032232;28;20041;-78
2023/12/22 01:11:17;;;;;;;2.55;1.52;;;4.90;99.90;;;;;;5031981;28;20124;-78
2023/12/22 01:13:43;;;;;;;2.22;1.70;;;4.80;99.90;;;;;;5015622;28;20049;-80
2023/12/22 01:16:08;;;;;;;2.53;1.80;;;4.80;99.90;;;;;;5032117;28;20096;-80
2023/12/22 01:18:34;;;;;;;4.63;1.98;;;4.60;99.90;;;;;;5031926;28;20041;-79
2023/12/22 01:21:00;;;;;;;3.75;2.03;;;4.40;99.90;;;;;;5015510;28;20052;-78
2023/12/22 01:23:25;;;;;;;3.80;1.85;;;4.40;99.90;;;;;;5031970;28;20050;-79
2023/12/22 01:25:51;;;;;;;3.85;1.90;;;5.50;99.90;;;;;;5015394;28;20041;-78
2023/12/22 01:28:17;;;;;;;1.95;1.50;;;4.30;99.90;;;;;;5031894;28;20519;-78
2023/12/22 01:30:43;;;;;;;5.63;2.60;;;4.80;99.90;;;;;;5031772;28;20100;-78
2023/12/22 01:33:08;;;;;;;4.43;1.95;;;5.40;99.90;;;;;;5031657;28;20038;-78
2023/12/22 01:35:34;;;;;;;5.13;2.58;;;4.60;99.90;;;;;;5015789;28;20504;-78
2023/12/22 01:38:00;;;;;;;4.18;2.40;;;4.70;99.90;;;;;;5015284;28;20041;-77
2023/12/22 01:40:26;;;;;;;3.38;1.70;;;4.80;99.90;;;;;;5015192;28;20128;-77
2023/12/22 01:42:51;;;;;;;3.13;2.13;;;4.80;99.90;;;;;;5015253;28;20120;-76
2023/12/22 01:45:17;;;;;;;2.88;1.80;;;4.90;99.90;;;;;;5014324;28;20062;-78
2023/12/22 01:47:44;;;;;;;3.30;1.77;;;4.90;99.90;;;;;;5031699;28;20061;-78
2023/12/22 01:50:11;;;;;;;3.88;2.08;;;4.80;99.90;;;;;;5031331;28;20048;-78
2023/12/22 01:52:38;;;;;;;3.63;1.60;;;5.10;99.90;;;;;;5031708;28;20041;-77
2023/12/22 01:55:06;;;;;;;2.88;1.60;;;5.20;99.90;;;;;;5031314;28;20045;-78
2023/12/22 01:57:34;;;;;;;3.53;2.35;;;5.00;99.90;;;;;;5031278;28;20045;-78
2023/12/22 02:00:00;;;;;;;3.67;2.00;;;5.10;99.90;;;;;;5015214;28;20543;-82
2023/12/22 02:02:27;;;;;;;4.38;2.22;;;5.10;99.90;;;;;;5014948;28;20124;-82
2023/12/22 02:04:53;;;;;;;4.07;2.15;;;5.30;99.90;;;;;;5031577;28;20049;-83
2023/12/22 02:07:19;;;;;;;4.60;2.13;;;5.00;99.90;;;;;;5031112;28;20452;-83
2023/12/22 02:09:45;;;;;;;4.25;1.88;;;4.90;99.90;;;;;;5031034;28;20132;-81
2023/12/22 02:12:10;;;;;;;3.42;1.77;;;4.90;99.90;;;;;;5031347;28;20183;-82
2023/12/22 02:14:36;;;;;;;3.30;1.38;;;4.90;99.90;;;;;;5031341;28;20443;-82
2023/12/22 02:17:25;;;;;;;4.80;2.47;;;4.90;99.90;;;;;;5030835;28;20056;-82
2023/12/22 02:19:51;;;;;;;3.80;2.40;;;4.90;99.90;;;;;;5014499;28;20069;-82
2023/12/22 02:22:16;;;;;;;5.10;2.05;;;5.00;99.90;;;;;;5014400;28;20515;-81
2023/12/22 02:24:42;;;;;;;4.28;2.30;;;5.10;99.90;;;;;;5030963;28;20042;-82
2023/12/22 02:27:36;;;;;;;3.15;1.88;;;5.20;99.90;;;;;;5014400;28;20063;-82
2023/12/22 02:30:13;;;;;;;5.57;2.45;;;5.30;99.90;;;;;;5030934;28;20069;-82
2023/12/22 02:32:43;;;;;;;2.42;1.40;;;5.40;99.90;;;;;;5030898;28;20614;-81
2023/12/22 02:35:14;;;;;;;3.35;1.75;;;5.40;99.90;;;;;;5014540;28;20034;-82
2023/12/22 02:37:41;;;;;;;3.13;2.10;;;5.40;99.90;;;;;;5031036;28;20037;-81
2023/12/22 02:40:09;;;;;;;3.08;1.60;;;5.40;99.90;;;;;;5014349;28;20048;-80
2023/12/22 02:42:36;;;;;;;2.97;2.00;;;5.30;99.90;;;;;;5014344;28;20045;-82
2023/12/22 02:45:03;;;;;;;3.47;1.80;;;6.50;99.90;;;;;;5014021;28;20057;-81
2023/12/22 02:47:29;;;;;;;4.00;1.90;;;5.20;99.90;;;;;;5031941;28;20390;-81
2023/12/22 02:49:55;;;;;;;4.95;2.20;;;5.60;99.90;;;;;;5030789;28;20117;-80
2023/12/22 02:52:21;;;;;;;3.42;1.52;;;5.20;99.90;;;;;;5030941;28;20504;-80
2023/12/22 02:54:49;;;;;;;3.92;2.00;;;5.20;99.90;;;;;;5030800;28;20114;-79
2023/12/22 02:57:15;;;;;;;3.47;2.00;;;5.10;99.90;;;;;;5031312;28;20045;-79
2023/12/22 02:59:41;;;;;;;5.85;1.77;;;5.10;99.90;;;;;;5034674;28;20068;-80
2023/12/22 03:02:06;;;;;;;4.05;2.03;;;5.10;99.90;;;;;;5018041;28;20044;-79
2023/12/22 03:04:32;;;;;;;3.22;1.75;;;5.70;99.90;;;;;;5034623;28;20412;-79
2023/12/22 03:06:57;;;;;;;5.00;2.35;;;5.00;99.90;;;;;;5034724;28;20417;-79
2023/12/22 03:09:23;;;;;;;2.28;1.35;;;5.10;99.90;;;;;;5034437;28;20480;-79
2023/12/22 03:11:51;;;;;;;3.45;1.80;;;5.70;99.90;;;;;;5034707;28;20536;-78
2023/12/22 03:14:17;;;;;;;5.63;1.85;;;5.10;99.90;;;;;;5034521;28;20033;-78
2023/12/22 03:16:42;;;;;;;2.83;1.50;;;5.10;99.90;;;;;;5034689;28;20099;-78
2023/12/22 03:19:08;;;;;;;3.40;1.73;;;5.40;99.90;;;;;;5017852;28;20124;-77
2023/12/22 03:21:34;;;;;;;2.83;1.60;;;5.30;99.90;;;;;;5034166;28;20088;-78
2023/12/22 03:23:59;;;;;;;2.95;1.52;;;5.30;99.90;;;;;;5034209;28;20081;-79
2023/12/22 03:26:27;;;;;;;3.72;1.55;;;5.30;99.90;;;;;;5017558;28;20411;-78
2023/12/22 03:28:53;;;;;;;3.67;1.60;;;5.20;99.90;;;;;;5034322;28;20554;-78
2023/12/22 03:31:19;;;;;;;3.63;1.88;;;5.10;99.90;;;;;;5017649;28;20128;-78
2023/12/22 03:33:44;;;;;;;2.55;1.65;;;5.00;99.90;;;;;;5033896;28;20136;-78
2023/12/22 03:36:10;;;;;;;2.45;1.70;;;5.20;99.90;;;;;;5033906;28;20041;-78
2023/12/22 03:38:35;;;;;;;3.72;1.90;;;4.90;99.90;;;;;;5034189;28;20037;-78
2023/12/22 03:41:01;;;;;;;1.92;1.45;;;4.80;99.90;;;;;;5017478;28;20290;-78
2023/12/22 03:43:28;;;;;;;2.83;1.90;;;4.80;99.90;;;;;;5033509;28;20061;-78
2023/12/22 03:45:54;;;;;;;4.28;1.95;;;4.80;99.90;;;;;;5033746;28;20052;-78
2023/12/22 03:48:19;;;;;;;2.60;1.38;;;4.80;99.90;;;;;;5033647;28;20045;-78
2023/12/22 03:50:45;;;;;;;4.35;1.90;;;5.00;99.90;;;;;;5033737;28;20049;-77
2023/12/22 03:53:11;;;;;;;4.43;1.70;;;5.10;99.90;;;;;;5017475;28;20052;-77
2023/12/22 03:55:36;;;;;;;3.42;1.95;;;5.20;99.90;;;;;;5033630;28;20116;-77
2023/12/22 03:58:04;;;;;;;3.83;2.08;;;5.60;99.90;;;;;;5017034;28;20492;-78
2023/12/22 04:00:30;;;;;;;4.68;1.88;;;5.20;99.90;;;;;;5033972;28;20057;-78
2023/12/22 04:02:56;;;;;;;4.72;1.65;;;5.40;99.90;;;;;;5016946;28;20132;-78
2023/12/22 04:05:22;;;;;;;2.70;1.75;;;5.30;99.90;;;;;;5016961;28;20033;-78
2023/12/22 04:07:48;;;;;;;3.00;1.92;;;5.30;99.90;;;;;;5032835;28;20042;-77
2023/12/22 04:10:17;;;;;;;4.15;2.13;;;5.30;99.90;;;;;;5033144;28;20152;-78
2023/12/22 04:12:43;;;;;;;3.60;1.75;;;5.30;99.90;;;;;;5033124;28;20050;-78
2023/12/22 04:15:09;;;;;;;3.95;2.05;;;5.20;99.90;;;;;;5016775;28;20091;-78
2023/12/22 04:17:34;;;;;;;4.30;1.67;;;5.20;99.90;;;;;;5033127;28;20041;-78
2023/12/22 04:20:00;;;;;;;2.95;1.63;;;5.20;99.90;;;;;;5016774;28;20037;-79
2023/12/22 04:22:26;;;;;;;6.22;2.38;;;5.20;99.90;;;;;;5016956;28;20552;-79
2023/12/22 04:24:52;;;;;;;5.13;2.20;;;5.10;99.90;;;;;;5016977;28;20080;-79
2023/12/22 04:27:17;;;;;;;2.22;1.40;;;5.10;99.90;;;;;;5033116;28;20049;-79
2023/12/22 04:29:43;;;;;;;3.80;1.75;;;5.20;99.90;;;;;;5016717;28;20045;-79
2023/12/22 04:32:09;;;;;;;4.25;2.13;;;5.10;99.90;;;;;;5032951;28;20107;-79
2023/12/22 04:34:35;;;;;;;5.63;2.42;;;5.10;99.90;;;;;;5032953;28;20041;-79
2023/12/22 04:37:00;;;;;;;3.63;1.67;;;5.10;99.90;;;;;;5016922;28;20042;-79
2023/12/22 04:39:26;;;;;;;4.40;2.28;;;5.20;99.90;;;;;;5016269;28;20033;-80
2023/12/22 04:41:51;;;;;;;5.60;2.28;;;5.10;99.90;;;;;;5032846;28;20132;-79
2023/12/22 04:44:17;;;;;;;3.72;2.13;;;5.00;99.90;;;;;;5016180;28;20519;-79
2023/12/22 04:46:43;;;;;;;4.03;1.98;;;5.10;99.90;;;;;;5016387;28;20390;-80
2023/12/22 04:49:08;;;;;;;6.35;1.95;;;5.20;99.90;;;;;;5032579;28;20401;-79
2023/12/22 04:51:34;;;;;;;4.55;2.35;;;5.30;99.90;;;;;;5016450;28;20049;-79
2023/12/22 04:54:00;;;;;;;4.30;2.58;;;5.30;99.90;;;;;;5016330;28;20045;-80
2023/12/22 04:56:26;;;;;;;4.47;2.40;;;5.40;99.90;;;;;;5032730;28;20084;-80
2023/12/22 04:58:52;;;;;;;4.95;2.40;;;5.50;99.90;;;;;;5032926;28;20585;-80
2023/12/22 05:01:18;;;;;;;3.00;1.73;;;5.50;99.90;;;;;;5032474;28;20044;-80
2023/12/22 05:03:44;;;;;;;4.35;2.47;;;5.50;99.90;;;;;;5016189;28;20052;-80
2023/12/22 05:06:09;;;;;;;4.05;1.88;;;5.70;99.90;;;;;;5032784;28;20049;-80
2023/12/22 05:08:35;;;;;;;3.92;2.63;;;5.80;99.90;;;;;;5032476;28;20099;-80
2023/12/22 05:11:00;;;;;;;3.53;2.15;;;5.80;99.90;;;;;;5032490;28;20034;-81
2023/12/22 05:13:26;;;;;;;2.60;1.63;;;5.80;99.90;;;;;;5032101;28;20041;-82
2023/12/22 05:15:52;;;;;;;5.78;1.92;;;6.20;99.90;;;;;;5016208;28;20040;-80
2023/12/22 05:18:17;;;;;;;4.20;2.47;;;6.00;99.90;;;;;;5015789;28;20120;-82
2023/12/22 05:20:43;;;;;;;4.72;1.95;;;6.10;99.90;;;;;;5031353;28;20049;-82
2023/12/22 05:23:09;;;;;;;4.95;2.38;;;6.00;99.90;;;;;;5032096;28;20045;-82
2023/12/22 05:25:35;;;;;;;3.65;2.35;;;6.00;99.90;;;;;;5032474;28;20084;-81
2023/12/22 05:28:00;;;;;;;3.75;2.35;;;5.90;99.90;;;;;;5015404;28;20077;-81
2023/12/22 05:30:26;;;;;;;2.95;1.70;;;6.10;99.90;;;;;;5032238;28;20042;-80
2023/12/22 05:32:51;;;;;;;4.07;2.08;;;6.60;99.90;;;;;;5031891;28;20037;-80
2023/12/22 05:35:17;;;;;;;4.95;1.95;;;6.10;99.90;;;;;;5031720;28;20559;-80
2023/12/22 05:37:43;;;;;;;4.53;2.28;;;6.70;99.90;;;;;;5031755;28;20072;-80
2023/12/22 05:40:09;;;;;;;5.45;2.25;;;6.30;99.90;;;;;;5015385;28;20041;-80
2023/12/22 05:42:35;;;;;;;4.57;2.33;;;6.30;99.90;;;;;;5015200;28;20041;-80
2023/12/22 05:45:01;;;;;;;5.13;1.83;;;6.20;99.90;;;;;;5015205;28;20057;-80
2023/12/22 05:47:26;;;;;;;2.95;1.60;;;6.40;99.90;;;;;;5014948;28;20038;-79
2023/12/22 05:49:52;;;;;;;4.28;1.90;;;6.20;99.90;;;;;;5015281;28;20046;-79
2023/12/22 05:52:18;;;;;;;3.45;1.85;;;6.20;99.90;;;;;;5031639;28;20481;-79
2023/12/22 05:54:43;;;;;;;3.45;1.55;;;6.20;99.90;;;;;;5015210;28;20045;-80
2023/12/22 05:57:09;;;;;;;3.80;2.20;;;6.10;99.90;;;;;;5031910;28;20045;-79
2023/12/22 05:59:35;;;;;;;3.35;1.67;;;6.30;99.90;;;;;;5014951;28;20083;-80
2023/12/22 06:02:01;;;;;;;4.70;2.30;;;6.90;99.90;;;;;;5031458;28;20404;-80
2023/12/22 06:04:27;;;;;;;4.53;2.05;;;6.50;99.90;;;;;;5031521;28;20049;-79
2023/12/22 06:06:53;;;;;;;4.95;2.00;;;6.10;99.90;;;;;;5031149;28;20172;-79
2023/12/22 06:09:20;;;;;;;4.43;1.77;;;6.60;99.90;;;;;;5031890;28;20470;-79
2023/12/22 06:11:46;;;;;;;6.18;2.00;;;6.60;99.90;;;;;;5031194;28;20041;-79
2023/12/22 06:14:12;;;;;;;3.08;1.63;;;6.40;99.90;;;;;;5031221;28;20041;-80
2023/12/22 06:16:38;;;;;;;4.18;2.28;;;6.20;99.90;;;;;;5031335;28;20033;-79
2023/12/22 06:19:04;;;;;;;3.42;2.15;;;6.40;99.90;;;;;;5031367;28;20087;-79
2023/12/22 06:21:29;;;;;;;4.22;2.42;;;6.60;99.90;;;;;;5031236;28;20045;-78
2023/12/22 06:23:55;;;;;;;6.43;2.03;;;6.50;99.90;;;;;;5014627;28;20504;-79
2023/12/22 06:26:21;;;;;;;3.75;1.80;;;6.20;99.90;;;;;;5014533;28;20243;-78
2023/12/22 06:28:46;;;;;;;3.42;1.83;;;6.60;99.90;;;;;;5031159;28;20081;-79
2023/12/22 06:31:21;;;;;;;2.90;2.05;;;6.20;99.90;;;;;;5014249;28;20412;-79
2023/12/22 06:33:48;;;;;;;3.30;2.03;;;6.20;99.90;;;;;;5030878;28;20080;-79
2023/12/22 06:36:23;;;;;;;3.28;1.92;;;6.20;99.90;;;;;;5031227;28;20038;-79
2023/12/22 06:38:53;;;;;;;3.42;2.08;;;6.40;99.90;;;;;;5031121;28;20044;-79
2023/12/22 06:41:23;;;;;;;2.92;1.80;;;6.30;99.90;;;;;;5014536;28;20073;-81
2023/12/22 06:43:50;;;;;;;2.35;1.50;;;6.90;99.90;;;;;;5030681;28;20473;-82
2023/12/22 06:46:22;;;;;;;2.60;1.60;;;6.40;99.90;;;;;;5030824;28;20128;-81
2023/12/22 06:48:47;;;;;;;;;;;6.40;99.90;;;;;;5031145;28;20045;-81
2023/12/22 06:51:18;;;;;;;6.68;2.35;;;6.30;99.90;;;;;;5030461;28;19971;-80
2023/12/22 06:53:45;;;;;;;4.22;2.00;;;6.40;99.90;;;;;;5014073;28;20037;-81
2023/12/22 06:56:18;;;;;;;3.08;1.65;;;6.40;99.90;;;;;;5014334;28;20037;-80
2023/12/22 06:58:46;;;;;;;3.60;1.60;;;6.30;99.90;;;;;;5030623;28;20444;-80
2023/12/22 07:01:12;;;;;;;2.75;1.63;;;6.40;99.90;;;;;;5031212;28;20124;-80
2023/12/22 07:03:38;;;;;;;2.67;1.58;;;6.60;99.90;;;;;;5031170;28;20128;-83
2023/12/22 07:06:04;;;;;;;3.55;1.60;;;6.50;99.90;;;;;;5031065;28;20444;-83
2023/12/22 07:08:29;;;;;;;2.75;1.77;;;6.20;99.90;;;;;;5014325;28;20049;-80
2023/12/22 07:10:55;;;;;;;2.03;1.38;;;6.30;99.90;;;;;;5030692;28;20048;-79
2023/12/22 07:13:21;;;;;;;3.88;1.95;;;6.30;99.90;;;;;;5014189;28;20041;-85
2023/12/22 07:15:47;;;;;;;6.13;1.70;;;6.40;99.90;;;;;;5014417;28;20048;-82
2023/12/22 07:18:13;;;;;;;1.65;1.33;;;7.00;99.90;;;;;;5031371;28;20041;-84
2023/12/22 07:20:39;;;;;;;4.70;1.90;;;6.30;99.90;;;;;;5031891;28;20124;-88
2023/12/22 07:23:04;;;;;;;4.93;2.30;;;6.50;99.90;;;;;;5032269;28;20056;-86
2023/12/22 07:25:36;;;;;;;3.95;1.88;;;6.70;99.90;;;;;;5014747;28;20489;-86
2023/12/22 07:28:01;;;;;;;;;;;6.30;99.90;;;;;;5031654;28;20044;-82
2023/12/22 07:30:27;;;;;;;4.22;1.80;;;6.20;99.90;;;;;;5030516;28;19921;-81
2023/12/22 07:32:53;;;;;;;4.10;1.90;;;6.30;99.90;;;;;;5013979;28;20038;-80
2023/12/22 07:35:19;;;;;;;3.60;1.65;;;6.20;99.90;;;;;;5014052;28;20034;-82
2023/12/22 07:37:45;;;;;;;3.42;1.52;;;6.70;99.90;;;;;;5014053;28;20048;-82
2023/12/22 07:40:11;;;;;;;4.70;1.95;;;6.30;99.90;;;;;;5014104;28;20041;-86
2023/12/22 07:42:37;;;;;;;3.28;1.45;;;6.30;99.90;;;;;;5014151;28;20049;-81
2023/12/22 07:45:05;;;;;;;4.35;2.10;;;6.30;99.90;;;;;;5033812;28;20058;-83
2023/12/22 07:47:32;;;;;;;4.47;2.05;;;6.50;99.90;;;;;;5033956;28;20045;-84
2023/12/22 07:49:57;;;;;;;3.50;1.92;;;6.40;99.90;;;;;;5034031;28;20440;-82
2023/12/22 07:52:23;;;;;;;3.55;1.92;;;6.80;99.90;;;;;;5033808;28;20041;-82
2023/12/22 07:54:49;;;;;;;4.82;2.47;;;6.60;99.90;;;;;;5017542;28;20572;-82
2023/12/22 07:57:16;;;;;;;2.30;1.90;;;6.60;99.90;;;;;;5033710;28;20056;-83
2023/12/22 07:59:41;;;;;;;5.75;1.63;;;6.70;99.90;;;;;;5017510;28;20124;-82
2023/12/22 08:02:07;;;;;;;5.75;2.45;;;7.10;99.90;;;;;;5033826;28;20172;-85
2023/12/22 08:04:32;;;;;;;6.72;2.15;;;6.40;99.90;;;;;;5017120;28;20406;-83
2023/12/22 08:06:58;;;;;;;3.13;1.42;;;6.50;99.90;;;;;;5033866;28;20452;-83
2023/12/22 08:09:24;;;;;;;3.88;2.15;;;6.40;99.90;;;;;;5017383;28;20499;-82
2023/12/22 08:11:52;;;;;;;2.40;1.15;;;6.80;99.90;;;;;;5033487;28;20188;-83
2023/12/22 08:14:19;;;;;;;3.22;2.10;;;7.00;99.90;;;;;;5033258;28;20037;-82
2023/12/22 08:16:45;;;;;;;4.15;1.60;;;6.50;99.90;;;;;;5033492;28;20037;-83
2023/12/22 08:19:10;;;;;;;2.33;1.45;;;6.40;99.90;;;;;;5033276;28;20406;-82
2023/12/22 08:21:36;;;;;;;3.25;1.90;;;6.70;99.90;;;;;;5033293;28;20041;-79
2023/12/22 08:24:02;;;;;;;3.17;2.00;;;6.40;99.90;;;;;;5016564;28;20051;-79
2023/12/22 08:26:28;;;;;;;1.95;1.48;;;6.40;99.90;;;;;;5032985;28;20108;-79
2023/12/22 08:28:53;;;;;;;2.78;1.35;;;7.00;99.90;;;;;;5032859;28;20100;-78
2023/12/22 08:31:19;;;;;;;3.60;1.80;;;6.50;99.90;;;;;;5032835;28;20041;-79
2023/12/22 08:33:45;;;;;;;1.95;1.48;;;6.70;99.90;;;;;;5032808;28;20087;-79
2023/12/22 08:36:11;;;;;;;4.53;2.03;;;6.50;99.90;;;;;;5033273;28;20498;-79
2023/12/22 08:38:40;;;;;;;2.70;1.65;;;6.50;99.90;;;;;;5032776;28;20044;-79
2023/12/22 08:41:07;;;;;;;2.97;1.85;;;6.60;99.90;;;;;;5032803;28;20056;-78
2023/12/22 08:43:33;;;;;;;1.90;1.20;;;6.60;99.90;;;;;;5032735;28;20061;-78
2023/12/22 08:45:58;;;;;;;3.15;1.55;;;6.90;99.90;;;;;;5016194;28;20050;-78
2023/12/22 08:48:24;;;;;;;2.53;1.38;;;6.80;99.90;;;;;;5032711;28;20048;-77
2023/12/22 08:50:50;;;;;;;3.13;1.90;;;6.40;99.90;;;;;;5032637;28;20515;-78
2023/12/22 08:53:15;;;;;;;3.00;1.80;;;6.40;99.90;;;;;;5015917;28;20444;-79
2023/12/22 08:55:41;;;;;;;3.05;1.83;;;6.30;99.90;;;;;;5016125;28;20489;-78
2023/12/22 08:58:06;;;;;;;5.85;2.15;;;6.50;99.90;;;;;;5016263;28;20120;-78
2023/12/22 09:00:32;;;;;;;2.92;1.60;;;6.70;99.90;;;;;;5015840;28;20037;-79
2023/12/22 09:02:58;;;;;;;2.88;1.33;;;6.20;99.90;;;;;;5032507;28;20055;-79
2023/12/22 09:05:23;;;;;;;3.17;1.88;;;6.60;99.90;;;;;;5015673;28;20582;-79
2023/12/22 09:07:49;;;;;;;3.17;1.45;;;6.40;99.90;;;;;;5032466;28;20052;-78
2023/12/22 09:10:15;;;;;;;1.80;1.20;;;6.70;99.90;;;;;;5015770;28;20095;-79
2023/12/22 09:12:41;;;;;;;3.63;1.50;;;6.70;99.90;;;;;;5032187;28;20037;-79
2023/12/22 09:15:07;;;;;;;2.92;1.33;;;7.00;99.90;;;;;;5032474;28;20091;-79
2023/12/22 09:17:34;;;;;;;1.98;0.93;;;6.40;99.90;;;;;;5032035;28;20041;-79
2023/12/22 09:20:00;;;;;;;1.17;1.08;;;6.50;99.90;;;;;;5032151;28;20129;-81
2023/12/22 09:22:25;;;;;;;1.92;1.08;;;7.60;99.90;;;;;;5032524;28;20524;-82
2023/12/22 09:24:51;;;;;;;2.58;1.00;;;6.60;99.90;;;;;;5016156;28;20049;-84
2023/12/22 09:27:17;;;;;;;1.38;1.00;;;6.50;99.90;;;;;;5015806;28;20052;-75
2023/12/22 09:29:42;;;;;;;1.33;1.15;;;6.80;99.90;;;;;;5032401;28;20048;-81
2023/12/22 09:32:08;;;;;;;2.20;1.13;;;6.50;99.90;;;;;;5016191;28;20041;-81
2023/12/22 09:34:34;;;;;;;2.13;1.00;;;7.00;99.90;;;;;;5031682;28;20037;-79
2023/12/22 09:36:59;;;;;;;2.42;1.15;;;6.40;99.90;;;;;;5031833;28;20469;-78
2023/12/22 09:39:26;;;;;;;1.40;0.88;;;6.80;99.90;;;;;;5031670;28;20481;-81
2023/12/22 09:41:52;;;;;;;0.90;0.77;;;6.90;99.90;;;;;;5016320;28;20052;-79
2023/12/22 09:44:20;;;;;;;1.15;0.80;;;6.80;99.90;;;;;;5033321;28;20053;-80
2023/12/22 09:46:52;;;;;;;2.70;1.02;;;6.60;99.90;;;;;;5032151;28;20034;-80
2023/12/22 09:49:21;;;;;;;;;;;6.40;99.90;;;;;;5032144;28;20073;-80
2023/12/22 09:51:48;;;;;;;1.70;0.93;;;6.60;99.90;;;;;;5032468;28;19925;-82
2023/12/22 09:54:16;;;;;;;1.88;1.10;;;7.00;99.90;;;;;;5016574;28;20406;-82
2023/12/22 09:56:42;;;;;;;2.03;1.10;;;6.90;99.90;;;;;;5015048;28;20652;-83
2023/12/22 09:59:12;;;;;;;0.85;0.80;;;6.70;99.90;;;;;;5015566;28;20044;-81
2023/12/22 10:01:45;;;;;;;3.03;1.75;;;7.30;99.90;;;;;;5031722;28;20562;-82
2023/12/22 10:04:12;;;;;;;1.00;0.90;;;6.90;99.90;;;;;;5032009;28;20045;-81
2023/12/22 10:06:38;;;;;;;2.10;1.23;;;6.50;99.90;;;;;;5031963;28;20048;-82
2023/12/22 10:09:07;;;;;;;1.60;0.98;;;6.60;99.90;;;;;;5015979;28;20041;-84
2023/12/22 10:11:34;;;;;;;1.80;1.00;;;7.60;99.90;;;;;;5031688;28;20057;-84
2023/12/22 10:14:01;;;;;;;1.27;0.80;;;6.60;99.90;;;;;;5031399;28;20175;-80
2023/12/22 10:16:27;;;;;;;3.22;1.50;;;6.90;99.90;;;;;;5031901;28;20041;-81
2023/12/22 10:18:54;;;;;;;2.33;1.33;;;6.70;99.90;;;;;;5032114;28;20038;-82
2023/12/22 10:21:19;;;;;;;1.88;1.00;;;6.80;99.90;;;;;;5015012;28;20045;-82
2023/12/22 10:23:45;;;;;;;2.22;1.10;;;6.70;99.90;;;;;;5031661;28;20515;-81
2023/12/22 10:26:12;;;;;;;1.75;1.23;;;7.00;99.90;;;;;;5031705;28;20120;-81
2023/12/22 10:28:37;;;;;;;1.10;1.00;;;7.70;99.90;;;;;;5014828;28;20044;-81
2023/12/22 10:31:07;;;;;;;3.00;1.10;;;6.90;99.90;;;;;;5031288;28;20124;-83
2023/12/22 10:33:33;;;;;;;1.88;1.25;;;6.80;99.90;;;;;;5030919;28;20037;-78
2023/12/22 10:36:02;;;;;;;1.25;0.90;;;6.90;99.90;;;;;;5031065;28;20092;-84
2023/12/22 10:38:37;;;;;;;1.65;0.90;;;6.70;99.90;;;;;;5031291;28;20481;-84
2023/12/22 10:41:05;;;;;;;1.13;0.90;;;6.60;99.90;;;;;;5014602;28;20049;-80
2023/12/22 10:43:31;;;;;;;1.95;1.02;;;6.70;99.90;;;;;;5014323;28;20053;-81
2023/12/22 10:45:56;;;;;;;1.77;1.27;;;6.70;99.90;;;;;;5030617;28;20131;-81
2023/12/22 10:48:25;;;;;;;1.73;0.90;;;6.70;99.90;;;;;;5014368;28;20083;-82
2023/12/22 10:50:51;;;;;;;2.50;1.13;;;6.80;99.90;;;;;;5030741;28;20041;-83
2023/12/22 10:53:16;;;;;;;1.50;1.10;;;7.10;99.90;;;;;;5030799;28;20481;-82
2023/12/22 10:55:42;;;;;;;2.33;1.23;;;7.00;99.90;;;;;;5030562;28;20041;-80
2023/12/22 10:58:09;;;;;;;4.00;1.52;;;6.70;99.90;;;;;;5031415;28;20046;-79
2023/12/22 11:00:40;;;;;;;3.08;1.45;;;6.70;99.90;;;;;;5030936;28;20045;-86
2023/12/22 11:03:10;;;;;;;1.58;1.27;;;6.70;99.90;;;;;;5031046;28;20084;-80
2023/12/22 11:05:39;;;;;;;3.40;1.60;;;6.80;99.90;;;;;;5030571;28;20432;-79
2023/12/22 11:08:08;;;;;;;1.80;0.93;;;7.20;99.90;;;;;;5013816;28;20045;-81
2023/12/22 11:10:37;;;;;;;1.60;1.25;;;6.80;99.90;;;;;;5030520;28;20048;-80
2023/12/22 11:13:04;;;;;;;1.92;1.33;;;6.80;99.90;;;;;;5031091;28;20493;-80
2023/12/22 11:15:30;;;;;;;2.40;1.25;;;6.80;99.90;;;;;;5031112;28;20112;-83
2023/12/22 11:17:57;;;;;;;2.38;1.50;;;6.90;99.90;;;;;;5030987;28;20037;-82
2023/12/22 11:20:25;;;;;;;2.20;1.27;;;6.90;99.90;;;;;;5034671;28;20163;-81
2023/12/22 11:22:52;;;;;;;2.70;1.63;;;6.90;99.90;;;;;;5034529;28;20401;-79
2023/12/22 11:25:19;;;;;;;2.80;1.42;;;7.00;99.90;;;;;;5034581;28;20044;-79
2023/12/22 11:27:47;;;;;;;2.28;1.27;;;;;;;;;;5018180;28;20508;-81
2023/12/22 11:30:14;;;;;;;2.30;1.20;;;;;;;;;;5018026;28;20138;-80
2023/12/22 11:32:40;;;;;;;1.67;1.08;;;;;;;;;;5034425;28;20052;-80
2023/12/22 11:35:07;;;;;;;2.25;1.38;;;;;;;;;;5034361;28;20418;-79
2023/12/22 11:37:36;;;;;;;1.58;1.20;;;;;;;;;;5017907;28;20470;-80
2023/12/22 11:40:03;;;;;;;3.33;1.83;;;;;;;;;;5034338;28;20057;-79
2023/12/22 11:42:32;;;;;;;2.15;1.48;;;;;;;;;;5033930;28;20073;-79
2023/12/22 11:44:58;;;;;;;3.00;1.40;;;;;;;;;;5034002;28;20069;-79
2023/12/22 11:47:25;;;;;;;5.15;1.55;;;;;;;;;;5017313;28;20037;-80
2023/12/22 11:49:51;;;;;;;1.92;1.17;;;;;;;;;;5033795;28;20045;-83
2023/12/22 11:52:18;;;;;;;1.58;1.23;;;;;;;;;;5018082;28;20037;-83
2023/12/22 11:54:52;;;;;;;1.67;1.20;;;;;;;;;;5017531;28;20125;-78
2023/12/22 11:57:30;;;;;;;3.70;1.23;;;;;;;;;;5034829;28;20051;-77
2023/12/22 11:59:58;;;;;;;2.00;1.50;;;;;;;;;;5033859;28;20080;-78
2023/12/22 12:02:24;;;;;;;1.90;1.38;;;;;;;;;;5033627;28;20053;-77
2023/12/22 12:04:53;;;;;;;2.90;1.30;;;;;;;;;;5033782;28;20489;-78
2023/12/22 12:07:44;;;;;;;4.03;1.55;;;;;;;;;;5016950;28;20653;-79
2023/12/22 12:10:10;;;;;;;1.87;1.13;;;;;;;;;;5017151;28;20056;-80
2023/12/22 12:12:36;;;;;;;1.40;0.98;;;;;;;;;;5017342;28;20053;-81
2023/12/22 12:15:09;;;;;;;2.30;1.20;;;;;;;;;;5033993;28;20091;-81
2023/12/22 12:17:42;;;;;;;4.38;2.20;;;;;;;;;;5033693;28;20483;-80
2023/12/22 12:20:09;;;;;;;2.40;1.35;;;;;;;;;;5033350;28;20049;-77
2023/12/22 12:22:38;;;;;;;2.53;1.70;;;;;;;;;;5033169;28;20077;-79
2023/12/22 12:25:08;;;;;;;2.03;1.48;;;7.50;99.90;;;;;;5033297;28;20142;-80
2023/12/22 12:27:36;;;;;;;2.33;1.52;;;7.40;99.90;;;;;;5033277;28;20042;-77
2023/12/22 12:30:30;;;;;;;2.05;1.20;;;7.30;99.90;;;;;;5032688;28;20049;-78
2023/12/22 12:33:09;;;;;;;2.05;0.80;;;7.30;99.90;;;;;;5014877;28;20052;-78
2023/12/22 12:35:39;;;;;;;4.30;1.77;;;7.30;99.90;;;;;;5016628;28;20041;-78
2023/12/22 12:38:06;;;;;;;2.28;1.25;;;7.30;99.90;;;;;;5032706;28;20044;-79
2023/12/22 12:40:34;;;;;;;2.08;1.30;;;7.30;99.90;;;;;;5016564;28;20095;-78
2023/12/22 12:43:01;;;;;;;4.63;1.83;;;7.30;99.90;;;;;;5016482;28;20485;-79
2023/12/22 12:45:27;;;;;;;1.38;0.90;;;7.30;99.90;;;;;;5016194;28;20049;-79
2023/12/22 12:48:00;;;;;;;3.65;1.52;;;7.40;99.90;;;;;;5016255;28;20047;-78
2023/12/22 12:50:28;;;;;;;2.80;1.58;;;7.30;99.90;;;;;;5032572;28;20045;-79
2023/12/22 12:52:55;;;;;;;2.92;1.48;;;7.30;99.90;;;;;;5032659;28;20064;-79
2023/12/22 12:55:22;;;;;;;3.65;1.60;;;7.40;99.90;;;;;;5032464;28;20120;-80
2023/12/22 12:57:55;;;;;;;3.80;1.60;;;7.30;99.90;;;;;;5032575;28;20067;-81
2023/12/22 13:00:28;;;;;;;1.58;1.10;;;7.30;99.90;;;;;;5032681;28;20394;-80
2023/12/22 13:03:02;;;;;;;2.28;1.27;;;7.30;99.90;;;;;;5032638;28;20049;-76